Kinuso, Canada
Current Conditions -  °F | °C
As of 11:00 AM on Tuesday 21 Oct 2014 (Local Time) from CYZH Reporting Station
Broken Clouds Broken Clouds  
Wind Chill: 46°   Ceiling: 17000
Heat Index: 46°   Visibility: 9mi
Dew Point: 43°   Wind: 2mph
Humidity: 87%   Direction: NA
Pressure: 29.62"   Gusts: NA
Location:  55.33°N, 115.43°W
Report Text: CYZH 211700Z AUTO VRB02KT 9SM BKN170 08/06 A2962 RMK SLP044
Loading
Personal Weather Stations






























Interactive Weather Map
Tropical Storm Tracking
New forecast layout! Learn more

10-Day Weather Forecast

Advertisements
Track Severe Weather on mobile